sensor_id;sensor_type;location;lat;lon;timestamp;pressure;altitude;pressure_sealevel;temperature;humidity
21869;BME280;11099;41.564;23.296;2023-06-10T00:02:03;97133.16;;;20.46;100.00
21869;BME280;11099;41.564;23.296;2023-06-10T00:04:28;97188.13;;;20.68;100.00
21869;BME280;11099;41.564;23.296;2023-06-10T00:06:54;97177.22;;;20.54;100.00
21869;BME280;11099;41.564;23.296;2023-06-10T00:09:20;97127.69;;;20.43;100.00
21869;BME280;11099;41.564;23.296;2023-06-10T00:11:47;97170.31;;;20.57;100.00
21869;BME280;11099;41.564;23.296;2023-06-10T00:14:13;97062.25;;;19.98;100.00
21869;BME280;11099;41.564;23.296;2023-06-10T00:16:38;97173.63;;;20.36;100.00
21869;BME280;11099;41.564;23.296;2023-06-10T00:19:04;97016.97;;;19.18;100.00
21869;BME280;11099;41.564;23.296;2023-06-10T00:21:34;97156.97;;;20.23;100.00
21869;BME280;11099;41.564;23.296;2023-06-10T00:24:09;97155.81;;;20.24;100.00
21869;BME280;11099;41.564;23.296;2023-06-10T00:26:41;97145.69;;;20.10;100.00
21869;BME280;11099;41.564;23.296;2023-06-10T00:29:07;97149.22;;;20.18;100.00
21869;BME280;11099;41.564;23.296;2023-06-10T00:31:37;97135.31;;;20.19;100.00
21869;BME280;11099;41.564;23.296;2023-06-10T00:34:03;97102.63;;;19.77;100.00
21869;BME280;11099;41.564;23.296;2023-06-10T00:36:29;97126.50;;;19.67;100.00
21869;BME280;11099;41.564;23.296;2023-06-10T00:38:55;97120.75;;;19.72;100.00
21869;BME280;11099;41.564;23.296;2023-06-10T00:41:20;97085.94;;;19.60;100.00
21869;BME280;11099;41.564;23.296;2023-06-10T00:43:46;97107.25;;;19.72;100.00
21869;BME280;11099;41.564;23.296;2023-06-10T00:46:11;97161.91;;;20.14;100.00
21869;BME280;11099;41.564;23.296;2023-06-10T00:48:38;97153.91;;;20.28;100.00
21869;BME280;11099;41.564;23.296;2023-06-10T00:51:05;97087.94;;;19.70;100.00
21869;BME280;11099;41.564;23.296;2023-06-10T00:53:31;97172.06;;;20.27;100.00
21869;BME280;11099;41.564;23.296;2023-06-10T00:55:57;97152.19;;;20.68;100.00
21869;BME280;11099;41.564;23.296;2023-06-10T00:58:24;97151.00;;;20.62;100.00
21869;BME280;11099;41.564;23.296;2023-06-10T01:00:51;97160.22;;;20.50;100.00
21869;BME280;11099;41.564;23.296;2023-06-10T01:03:16;97052.59;;;19.97;100.00
21869;BME280;11099;41.564;23.296;2023-06-10T01:05:42;97010.72;;;19.59;100.00
21869;BME280;11099;41.564;23.296;2023-06-10T01:08:35;97140.00;;;20.30;100.00
21869;BME280;11099;41.564;23.296;2023-06-10T01:11:08;97088.88;;;19.99;100.00
21869;BME280;11099;41.564;23.296;2023-06-10T01:13:38;97119.22;;;20.41;100.00
21869;BME280;11099;41.564;23.296;2023-06-10T01:16:05;97114.13;;;20.32;100.00
21869;BME280;11099;41.564;23.296;2023-06-10T01:18:31;97035.94;;;19.88;100.00
21869;BME280;11099;41.564;23.296;2023-06-10T01:20:56;96997.69;;;19.75;100.00
21869;BME280;11099;41.564;23.296;2023-06-10T01:23:22;97091.34;;;20.26;100.00
21869;BME280;11099;41.564;23.296;2023-06-10T01:25:57;97126.56;;;20.40;100.00
21869;BME280;11099;41.564;23.296;2023-06-10T01:31:00;97083.94;;;20.12;100.00
21869;BME280;11099;41.564;23.296;2023-06-10T01:33:37;97145.47;;;19.78;100.00
21869;BME280;11099;41.564;23.296;2023-06-10T01:36:04;97161.09;;;20.03;100.00
21869;BME280;11099;41.564;23.296;2023-06-10T01:38:37;97132.91;;;19.52;100.00
21869;BME280;11099;41.564;23.296;2023-06-10T01:41:05;97163.22;;;20.34;100.00
21869;BME280;11099;41.564;23.296;2023-06-10T01:43:35;97132.28;;;20.32;100.00
21869;BME280;11099;41.564;23.296;2023-06-10T01:46:02;97147.91;;;20.56;100.00
21869;BME280;11099;41.564;23.296;2023-06-10T01:48:27;97184.69;;;20.78;100.00
21869;BME280;11099;41.564;23.296;2023-06-10T01:50:53;97162.03;;;20.32;100.00
21869;BME280;11099;41.564;23.296;2023-06-10T01:53:21;97125.97;;;19.51;100.00
21869;BME280;11099;41.564;23.296;2023-06-10T01:55:47;97179.53;;;19.93;100.00
21869;BME280;11099;41.564;23.296;2023-06-10T01:58:12;97137.16;;;19.53;100.00
21869;BME280;11099;41.564;23.296;2023-06-10T02:00:38;97173.94;;;19.68;100.00
21869;BME280;11099;41.564;23.296;2023-06-10T02:03:03;97183.03;;;19.97;100.00
21869;BME280;11099;41.564;23.296;2023-06-10T02:05:28;97145.53;;;19.41;100.00
21869;BME280;11099;41.564;23.296;2023-06-10T02:07:54;97193.34;;;19.81;100.00
21869;BME280;11099;41.564;23.296;2023-06-10T02:10:19;97158.59;;;19.80;100.00
21869;BME280;11099;41.564;23.296;2023-06-10T02:12:45;97176.41;;;19.88;100.00
21869;BME280;11099;41.564;23.296;2023-06-10T02:15:10;97123.38;;;19.65;100.00
21869;BME280;11099;41.564;23.296;2023-06-10T02:17:36;97120.13;;;19.49;100.00
21869;BME280;11099;41.564;23.296;2023-06-10T02:20:03;97173.44;;;20.00;100.00
21869;BME280;11099;41.564;23.296;2023-06-10T02:22:32;97154.25;;;20.26;100.00
21869;BME280;11099;41.564;23.296;2023-06-10T02:24:57;97107.03;;;19.47;100.00
21869;BME280;11099;41.564;23.296;2023-06-10T02:27:23;97134.66;;;19.74;100.00
21869;BME280;11099;41.564;23.296;2023-06-10T02:29:48;97178.25;;;19.77;100.00
21869;BME280;11099;41.564;23.296;2023-06-10T02:32:14;97139.69;;;19.80;100.00
21869;BME280;11099;41.564;23.296;2023-06-10T02:34:40;97105.25;;;19.21;100.00
21869;BME280;11099;41.564;23.296;2023-06-10T02:37:08;97151.91;;;19.63;100.00
21869;BME280;11099;41.564;23.296;2023-06-10T02:39:33;97166.56;;;20.13;100.00
21869;BME280;11099;41.564;23.296;2023-06-10T02:41:59;97188.00;;;20.47;100.00
21869;BME280;11099;41.564;23.296;2023-06-10T02:44:25;97124.09;;;19.14;100.00
21869;BME280;11099;41.564;23.296;2023-06-10T02:46:50;97156.44;;;19.52;100.00
21869;BME280;11099;41.564;23.296;2023-06-10T02:49:16;97106.28;;;19.54;100.00
21869;BME280;11099;41.564;23.296;2023-06-10T02:51:41;97087.84;;;19.60;100.00
21869;BME280;11099;41.564;23.296;2023-06-10T02:54:07;97154.31;;;19.75;100.00
21869;BME280;11099;41.564;23.296;2023-06-10T02:56:32;97123.84;;;19.74;100.00
21869;BME280;11099;41.564;23.296;2023-06-10T02:58:58;97180.88;;;20.17;100.00
21869;BME280;11099;41.564;23.296;2023-06-10T03:01:24;97109.59;;;19.33;100.00
21869;BME280;11099;41.564;23.296;2023-06-10T03:03:50;97088.47;;;19.42;100.00
21869;BME280;11099;41.564;23.296;2023-06-10T03:06:15;97178.75;;;19.89;100.00
21869;BME280;11099;41.564;23.296;2023-06-10T03:08:41;97135.94;;;19.06;100.00
21869;BME280;11099;41.564;23.296;2023-06-10T03:11:07;97123.03;;;19.26;100.00
21869;BME280;11099;41.564;23.296;2023-06-10T03:13:32;97161.69;;;19.37;100.00
21869;BME280;11099;41.564;23.296;2023-06-10T03:15:58;97077.56;;;18.54;100.00
21869;BME280;11099;41.564;23.296;2023-06-10T03:18:27;97081.38;;;18.83;100.00
21869;BME280;11099;41.564;23.296;2023-06-10T03:20:54;97110.88;;;19.02;100.00
21869;BME280;11099;41.564;23.296;2023-06-10T03:23:20;97122.81;;;19.05;100.00
21869;BME280;11099;41.564;23.296;2023-06-10T03:25:45;97120.56;;;19.10;100.00
21869;BME280;11099;41.564;23.296;2023-06-10T03:28:11;97127.25;;;19.24;100.00
21869;BME280;11099;41.564;23.296;2023-06-10T03:30:36;97127.59;;;19.59;100.00
21869;BME280;11099;41.564;23.296;2023-06-10T03:33:02;97021.25;;;18.41;100.00
21869;BME280;11099;41.564;23.296;2023-06-10T03:35:27;97074.31;;;19.08;100.00
21869;BME280;11099;41.564;23.296;2023-06-10T03:37:53;97167.44;;;19.73;100.00
21869;BME280;11099;41.564;23.296;2023-06-10T03:40:18;97084.47;;;19.26;100.00
21869;BME280;11099;41.564;23.296;2023-06-10T03:42:44;97151.31;;;19.84;100.00
21869;BME280;11099;41.564;23.296;2023-06-10T03:45:10;97195.00;;;20.51;100.00
21869;BME280;11099;41.564;23.296;2023-06-10T03:47:36;97118.75;;;19.62;100.00
21869;BME280;11099;41.564;23.296;2023-06-10T03:50:03;97178.44;;;20.64;100.00
21869;BME280;11099;41.564;23.296;2023-06-10T03:52:30;97105.31;;;19.77;100.00
21869;BME280;11099;41.564;23.296;2023-06-10T03:55:14;97194.31;;;20.10;100.00
21869;BME280;11099;41.564;23.296;2023-06-10T03:57:42;97141.22;;;19.77;100.00
21869;BME280;11099;41.564;23.296;2023-06-10T04:00:08;97073.72;;;20.57;100.00
21869;BME280;11099;41.564;23.296;2023-06-10T04:02:36;97197.22;;;22.58;100.00
21869;BME280;11099;41.564;23.296;2023-06-10T04:05:02;97152.75;;;23.18;100.00
21869;BME280;11099;41.564;23.296;2023-06-10T04:07:28;97115.28;;;23.02;97.53
21869;BME280;11099;41.564;23.296;2023-06-10T04:09:53;97161.31;;;23.79;96.89
21869;BME280;11099;41.564;23.296;2023-06-10T04:12:19;97149.03;;;24.43;88.03
21869;BME280;11099;41.564;23.296;2023-06-10T04:14:44;97147.88;;;24.78;84.98
21869;BME280;11099;41.564;23.296;2023-06-10T04:17:10;97188.84;;;24.64;88.00
21869;BME280;11099;41.564;23.296;2023-06-10T04:19:36;97164.66;;;24.73;82.87
21869;BME280;11099;41.564;23.296;2023-06-10T04:22:01;97113.59;;;24.81;78.91
21869;BME280;11099;41.564;23.296;2023-06-10T04:24:28;97157.22;;;26.72;68.67
21869;BME280;11099;41.564;23.296;2023-06-10T04:26:53;97117.56;;;26.24;65.48
21869;BME280;11099;41.564;23.296;2023-06-10T04:29:19;97146.19;;;26.36;65.62
21869;BME280;11099;41.564;23.296;2023-06-10T04:31:44;97157.06;;;24.16;73.02
21869;BME280;11099;41.564;23.296;2023-06-10T04:34:12;97130.19;;;24.59;73.02
21869;BME280;11099;41.564;23.296;2023-06-10T04:36:38;97027.22;;;23.48;73.79
21869;BME280;11099;41.564;23.296;2023-06-10T04:39:03;97055.16;;;24.62;71.83
21869;BME280;11099;41.564;23.296;2023-06-10T04:41:31;97069.38;;;25.27;70.45
21869;BME280;11099;41.564;23.296;2023-06-10T04:43:56;97168.38;;;26.97;66.76
21869;BME280;11099;41.564;23.296;2023-06-10T04:46:23;97145.69;;;27.20;63.35
21869;BME280;11099;41.564;23.296;2023-06-10T04:48:49;97167.44;;;27.93;60.47
21869;BME280;11099;41.564;23.296;2023-06-10T04:51:15;97169.53;;;27.20;63.61
21869;BME280;11099;41.564;23.296;2023-06-10T04:53:41;97139.50;;;26.80;64.79
21869;BME280;11099;41.564;23.296;2023-06-10T04:56:07;97051.59;;;26.09;64.01
21869;BME280;11099;41.564;23.296;2023-06-10T04:58:33;97174.34;;;27.12;63.81
21869;BME280;11099;41.564;23.296;2023-06-10T05:00:58;97080.31;;;26.37;64.18
21869;BME280;11099;41.564;23.296;2023-06-10T05:03:25;97177.28;;;27.21;63.97
21869;BME280;11099;41.564;23.296;2023-06-10T05:05:50;97173.34;;;26.23;68.53
21869;BME280;11099;41.564;23.296;2023-06-10T05:08:16;97030.53;;;24.96;69.13
21869;BME280;11099;41.564;23.296;2023-06-10T05:10:41;97156.53;;;25.54;70.23
21869;BME280;11099;41.564;23.296;2023-06-10T05:13:07;97153.47;;;25.52;70.50
21869;BME280;11099;41.564;23.296;2023-06-10T05:15:32;97095.19;;;26.13;67.76
21869;BME280;11099;41.564;23.296;2023-06-10T05:17:58;97098.47;;;27.20;63.43
21869;BME280;11099;41.564;23.296;2023-06-10T05:20:24;97129.81;;;26.36;68.52
21869;BME280;11099;41.564;23.296;2023-06-10T05:22:50;97174.13;;;26.00;69.22
21869;BME280;11099;41.564;23.296;2023-06-10T05:25:16;97147.34;;;26.38;68.42
21869;BME280;11099;41.564;23.296;2023-06-10T05:27:42;97048.28;;;25.04;72.62
21869;BME280;11099;41.564;23.296;2023-06-10T05:30:09;97091.75;;;24.57;75.96
21869;BME280;11099;41.564;23.296;2023-06-10T05:32:35;97076.63;;;25.10;73.77
21869;BME280;11099;41.564;23.296;2023-06-10T05:35:01;97126.31;;;25.68;70.80
21869;BME280;11099;41.564;23.296;2023-06-10T05:37:26;97094.03;;;25.90;69.54
21869;BME280;11099;41.564;23.296;2023-06-10T05:39:52;97162.06;;;26.44;69.83
21869;BME280;11099;41.564;23.296;2023-06-10T05:42:18;97143.19;;;26.90;66.51
21869;BME280;11099;41.564;23.296;2023-06-10T05:44:44;97122.97;;;26.87;67.18
21869;BME280;11099;41.564;23.296;2023-06-10T05:47:10;97103.50;;;26.85;64.49
21869;BME280;11099;41.564;23.296;2023-06-10T05:49:36;97134.06;;;27.16;65.01
21869;BME280;11099;41.564;23.296;2023-06-10T05:52:02;97165.09;;;27.26;64.51
21869;BME280;11099;41.564;23.296;2023-06-10T05:54:27;97158.81;;;26.89;65.79
21869;BME280;11099;41.564;23.296;2023-06-10T05:56:53;97157.63;;;26.90;66.58
21869;BME280;11099;41.564;23.296;2023-06-10T05:59:18;97110.78;;;27.44;64.22
21869;BME280;11099;41.564;23.296;2023-06-10T06:01:44;97117.53;;;27.03;63.59
21869;BME280;11099;41.564;23.296;2023-06-10T06:04:09;97125.63;;;27.27;62.83
21869;BME280;11099;41.564;23.296;2023-06-10T06:06:38;97145.28;;;27.54;64.13
21869;BME280;11099;41.564;23.296;2023-06-10T06:09:03;97166.59;;;27.11;67.46
21869;BME280;11099;41.564;23.296;2023-06-10T06:11:29;97106.13;;;27.25;64.74
21869;BME280;11099;41.564;23.296;2023-06-10T06:13:55;97059.28;;;27.26;61.87
21869;BME280;11099;41.564;23.296;2023-06-10T06:16:21;97135.03;;;27.26;63.85
21869;BME280;11099;41.564;23.296;2023-06-10T06:18:46;97139.13;;;27.50;64.90
21869;BME280;11099;41.564;23.296;2023-06-10T06:21:12;97083.63;;;27.21;64.95
21869;BME280;11099;41.564;23.296;2023-06-10T06:23:38;97097.25;;;28.02;62.12
21869;BME280;11099;41.564;23.296;2023-06-10T06:26:03;97138.41;;;28.12;61.62
21869;BME280;11099;41.564;23.296;2023-06-10T06:28:29;97128.94;;;27.35;64.36
21869;BME280;11099;41.564;23.296;2023-06-10T06:30:56;97142.69;;;27.15;63.23
21869;BME280;11099;41.564;23.296;2023-06-10T06:33:22;97119.84;;;26.69;64.59
21869;BME280;11099;41.564;23.296;2023-06-10T06:35:47;97116.75;;;26.67;63.32
21869;BME280;11099;41.564;23.296;2023-06-10T06:38:13;97089.13;;;26.81;63.74
21869;BME280;11099;41.564;23.296;2023-06-10T06:40:39;97120.25;;;27.56;61.60
21869;BME280;11099;41.564;23.296;2023-06-10T06:43:04;96994.03;;;26.43;62.19
21869;BME280;11099;41.564;23.296;2023-06-10T06:45:30;97080.53;;;27.51;59.62
21869;BME280;11099;41.564;23.296;2023-06-10T06:47:55;97103.16;;;27.19;62.52
21869;BME280;11099;41.564;23.296;2023-06-10T06:50:21;97135.31;;;27.80;62.53
21869;BME280;11099;41.564;23.296;2023-06-10T06:52:46;97058.25;;;26.84;63.10
21869;BME280;11099;41.564;23.296;2023-06-10T06:55:12;97136.66;;;27.89;60.58
21869;BME280;11099;41.564;23.296;2023-06-10T06:57:37;97126.16;;;27.38;64.36
21869;BME280;11099;41.564;23.296;2023-06-10T07:00:03;97122.66;;;27.87;61.51
21869;BME280;11099;41.564;23.296;2023-06-10T07:02:29;97099.13;;;27.08;62.51
21869;BME280;11099;41.564;23.296;2023-06-10T07:04:57;97115.53;;;27.24;63.56
21869;BME280;11099;41.564;23.296;2023-06-10T07:07:24;97127.22;;;27.08;64.32
21869;BME280;11099;41.564;23.296;2023-06-10T07:09:50;97127.19;;;26.72;64.95
21869;BME280;11099;41.564;23.296;2023-06-10T07:12:15;97056.00;;;26.63;66.21
21869;BME280;11099;41.564;23.296;2023-06-10T07:14:41;97120.84;;;27.15;65.37
21869;BME280;11099;41.564;23.296;2023-06-10T07:17:07;97049.28;;;27.20;64.14
21869;BME280;11099;41.564;23.296;2023-06-10T07:19:32;97116.75;;;27.88;61.85
21869;BME280;11099;41.564;23.296;2023-06-10T07:21:58;97036.38;;;26.68;65.54
21869;BME280;11099;41.564;23.296;2023-06-10T07:24:23;97041.16;;;27.33;64.60
21869;BME280;11099;41.564;23.296;2023-06-10T07:26:49;97010.91;;;25.79;67.73
21869;BME280;11099;41.564;23.296;2023-06-10T07:29:15;97073.31;;;26.56;68.38
21869;BME280;11099;41.564;23.296;2023-06-10T07:31:41;97108.59;;;27.68;64.47
21869;BME280;11099;41.564;23.296;2023-06-10T07:34:07;97104.97;;;27.58;65.14
21869;BME280;11099;41.564;23.296;2023-06-10T07:36:33;97035.28;;;27.18;65.49
21869;BME280;11099;41.564;23.296;2023-06-10T07:38:58;97088.72;;;27.51;65.61
21869;BME280;11099;41.564;23.296;2023-06-10T07:41:24;97053.75;;;26.94;65.46
21869;BME280;11099;41.564;23.296;2023-06-10T07:43:53;97070.28;;;27.23;66.36
21869;BME280;11099;41.564;23.296;2023-06-10T07:46:23;97095.72;;;27.52;65.34
21869;BME280;11099;41.564;23.296;2023-06-10T07:48:49;97053.09;;;27.71;64.77
21869;BME280;11099;41.564;23.296;2023-06-10T07:51:16;97102.50;;;28.09;61.94
21869;BME280;11099;41.564;23.296;2023-06-10T07:53:42;97048.16;;;27.95;61.84
21869;BME280;11099;41.564;23.296;2023-06-10T07:56:07;97084.13;;;28.10;63.15
21869;BME280;11099;41.564;23.296;2023-06-10T07:58:33;97026.84;;;27.74;64.27
21869;BME280;11099;41.564;23.296;2023-06-10T08:00:58;97034.03;;;27.51;66.57
21869;BME280;11099;41.564;23.296;2023-06-10T08:03:24;97062.38;;;27.90;65.27
21869;BME280;11099;41.564;23.296;2023-06-10T08:05:49;97070.88;;;28.08;64.88
21869;BME280;11099;41.564;23.296;2023-06-10T08:08:15;97040.19;;;28.01;65.23
21869;BME280;11099;41.564;23.296;2023-06-10T08:10:40;97053.44;;;27.73;67.41
21869;BME280;11099;41.564;23.296;2023-06-10T08:13:07;97074.69;;;27.82;65.02
21869;BME280;11099;41.564;23.296;2023-06-10T08:15:34;97065.97;;;28.16;64.11
21869;BME280;11099;41.564;23.296;2023-06-10T08:18:00;97054.97;;;27.74;66.71
21869;BME280;11099;41.564;23.296;2023-06-10T08:20:26;96987.41;;;27.58;66.64
21869;BME280;11099;41.564;23.296;2023-06-10T08:22:51;96993.03;;;27.51;66.25
21869;BME280;11099;41.564;23.296;2023-06-10T08:25:17;96950.72;;;27.27;65.09
21869;BME280;11099;41.564;23.296;2023-06-10T08:27:42;96982.28;;;27.44;65.32
21869;BME280;11099;41.564;23.296;2023-06-10T08:30:08;97053.41;;;28.19;63.59
21869;BME280;11099;41.564;23.296;2023-06-10T08:32:36;97033.31;;;28.38;63.16
21869;BME280;11099;41.564;23.296;2023-06-10T08:35:01;97012.91;;;28.26;64.12
21869;BME280;11099;41.564;23.296;2023-06-10T08:37:27;96939.56;;;27.79;63.06
21869;BME280;11099;41.564;23.296;2023-06-10T08:39:52;97015.16;;;28.02;64.42
21869;BME280;11099;41.564;23.296;2023-06-10T08:42:24;96983.34;;;28.21;64.45
21869;BME280;11099;41.564;23.296;2023-06-10T08:44:55;97006.47;;;28.33;64.36
21869;BME280;11099;41.564;23.296;2023-06-10T08:47:23;96983.94;;;28.54;61.87
21869;BME280;11099;41.564;23.296;2023-06-10T08:49:48;97047.47;;;28.49;62.96
21869;BME280;11099;41.564;23.296;2023-06-10T08:52:18;97032.22;;;28.35;64.28
21869;BME280;11099;41.564;23.296;2023-06-10T08:54:59;97027.53;;;29.25;63.34
21869;BME280;11099;41.564;23.296;2023-06-10T08:57:26;97026.78;;;29.25;62.80
21869;BME280;11099;41.564;23.296;2023-06-10T08:59:53;97029.22;;;28.84;64.41
21869;BME280;11099;41.564;23.296;2023-06-10T09:02:20;96914.56;;;28.06;62.04
21869;BME280;11099;41.564;23.296;2023-06-10T09:04:47;97023.19;;;28.22;64.12
21869;BME280;11099;41.564;23.296;2023-06-10T09:07:14;96997.34;;;28.23;65.65
21869;BME280;11099;41.564;23.296;2023-06-10T09:09:42;96979.31;;;28.89;62.81
21869;BME280;11099;41.564;23.296;2023-06-10T09:12:08;97022.66;;;29.42;63.38
21869;BME280;11099;41.564;23.296;2023-06-10T09:14:33;97001.56;;;28.92;62.46
21869;BME280;11099;41.564;23.296;2023-06-10T09:16:59;97000.00;;;29.29;62.50
21869;BME280;11099;41.564;23.296;2023-06-10T09:19:25;96960.06;;;28.68;61.62
21869;BME280;11099;41.564;23.296;2023-06-10T09:21:52;96978.34;;;28.71;62.47
21869;BME280;11099;41.564;23.296;2023-06-10T09:24:18;97007.16;;;28.88;63.25
21869;BME280;11099;41.564;23.296;2023-06-10T09:26:43;96981.84;;;29.09;59.76
21869;BME280;11099;41.564;23.296;2023-06-10T09:29:11;96951.59;;;28.87;62.57
21869;BME280;11099;41.564;23.296;2023-06-10T09:31:38;97000.06;;;29.03;61.81
21869;BME280;11099;41.564;23.296;2023-06-10T09:34:14;96957.22;;;28.71;60.92
21869;BME280;11099;41.564;23.296;2023-06-10T09:36:41;97007.38;;;28.43;61.90
21869;BME280;11099;41.564;23.296;2023-06-10T09:39:16;97005.56;;;27.81;66.36
21869;BME280;11099;41.564;23.296;2023-06-10T09:41:44;96970.66;;;28.40;61.62
21869;BME280;11099;41.564;23.296;2023-06-10T09:44:14;96999.69;;;27.96;64.78
21869;BME280;11099;41.564;23.296;2023-06-10T09:46:40;96927.06;;;27.37;65.13
21869;BME280;11099;41.564;23.296;2023-06-10T09:49:06;96937.75;;;27.89;62.97
21869;BME280;11099;41.564;23.296;2023-06-10T09:51:32;96994.00;;;28.45;61.92
21869;BME280;11099;41.564;23.296;2023-06-10T09:53:59;96936.22;;;28.01;63.10
21869;BME280;11099;41.564;23.296;2023-06-10T09:56:35;96968.50;;;28.48;62.66
21869;BME280;11099;41.564;23.296;2023-06-10T09:59:02;96958.00;;;28.46;60.62
21869;BME280;11099;41.564;23.296;2023-06-10T10:01:28;96909.81;;;28.49;58.16
21869;BME280;11099;41.564;23.296;2023-06-10T10:03:53;96948.97;;;28.20;62.20
21869;BME280;11099;41.564;23.296;2023-06-10T10:06:20;96971.69;;;28.46;60.76
21869;BME280;11099;41.564;23.296;2023-06-10T10:08:47;96972.88;;;28.71;59.92
21869;BME280;11099;41.564;23.296;2023-06-10T10:11:14;96973.38;;;29.17;60.92
21869;BME280;11099;41.564;23.296;2023-06-10T10:13:41;96881.53;;;28.14;60.92
21869;BME280;11099;41.564;23.296;2023-06-10T10:16:11;96895.03;;;28.46;60.22
21869;BME280;11099;41.564;23.296;2023-06-10T10:18:43;96939.69;;;28.69;60.74
21869;BME280;11099;41.564;23.296;2023-06-10T10:21:15;96946.16;;;29.35;57.72
21869;BME280;11099;41.564;23.296;2023-06-10T10:24:18;96962.47;;;28.53;60.83
21869;BME280;11099;41.564;23.296;2023-06-10T10:26:47;96940.91;;;28.42;59.39
21869;BME280;11099;41.564;23.296;2023-06-10T10:29:21;96972.75;;;29.12;56.51
21869;BME280;11099;41.564;23.296;2023-06-10T10:31:51;96935.94;;;29.01;56.07
21869;BME280;11099;41.564;23.296;2023-06-10T10:34:24;96906.50;;;28.67;54.21
21869;BME280;11099;41.564;23.296;2023-06-10T10:36:54;96899.03;;;28.67;56.03
21869;BME280;11099;41.564;23.296;2023-06-10T10:39:20;96934.94;;;29.07;57.53
21869;BME280;11099;41.564;23.296;2023-06-10T10:41:47;96865.19;;;28.61;55.36
21869;BME280;11099;41.564;23.296;2023-06-10T10:44:13;96899.66;;;28.84;55.83
21869;BME280;11099;41.564;23.296;2023-06-10T10:46:44;96911.63;;;28.77;57.14
21869;BME280;11099;41.564;23.296;2023-06-10T10:49:13;96953.91;;;28.76;58.78
21869;BME280;11099;41.564;23.296;2023-06-10T10:51:54;96876.25;;;28.06;57.59
21869;BME280;11099;41.564;23.296;2023-06-10T10:54:28;96874.84;;;28.02;59.24
21869;BME280;11099;41.564;23.296;2023-06-10T11:02:15;96949.22;;;28.51;61.76
21869;BME280;11099;41.564;23.296;2023-06-10T11:04:51;96948.28;;;28.16;63.38
21869;BME280;11099;41.564;23.296;2023-06-10T11:07:20;96949.34;;;28.35;61.55
21869;BME280;11099;41.564;23.296;2023-06-10T11:10:06;96934.16;;;28.05;62.85
21869;BME280;11099;41.564;23.296;2023-06-10T11:15:11;96949.34;;;28.35;61.56
21869;BME280;11099;41.564;23.296;2023-06-10T11:17:36;96856.03;;;27.91;63.55
21869;BME280;11099;41.564;23.296;2023-06-10T11:20:02;96874.19;;;28.10;62.97
21869;BME280;11099;41.564;23.296;2023-06-10T11:22:28;96908.69;;;28.33;60.83
21869;BME280;11099;41.564;23.296;2023-06-10T11:24:53;96908.22;;;27.97;60.57
21869;BME280;11099;41.564;23.296;2023-06-10T11:27:23;96924.53;;;27.13;67.05
21869;BME280;11099;41.564;23.296;2023-06-10T11:32:29;96934.28;;;26.98;68.62
21869;BME280;11099;41.564;23.296;2023-06-10T11:34:57;96899.03;;;26.71;67.40
21869;BME280;11099;41.564;23.296;2023-06-10T11:37:22;96918.22;;;26.84;65.60
21869;BME280;11099;41.564;23.296;2023-06-10T11:39:54;96944.94;;;26.92;61.61
21869;BME280;11099;41.564;23.296;2023-06-10T11:42:21;96943.66;;;27.13;60.23
21869;BME280;11099;41.564;23.296;2023-06-10T11:44:49;96941.78;;;27.26;60.34
21869;BME280;11099;41.564;23.296;2023-06-10T11:47:15;96882.91;;;27.09;59.91
21869;BME280;11099;41.564;23.296;2023-06-10T11:49:40;96883.28;;;27.24;60.02
21869;BME280;11099;41.564;23.296;2023-06-10T11:52:06;96879.50;;;27.34;61.19
21869;BME280;11099;41.564;23.296;2023-06-10T11:54:31;96889.56;;;27.37;59.09
21869;BME280;11099;41.564;23.296;2023-06-10T11:56:58;96928.47;;;27.41;60.13
21869;BME280;11099;41.564;23.296;2023-06-10T11:59:29;96925.69;;;27.57;58.40
21869;BME280;11099;41.564;23.296;2023-06-10T12:01:55;96919.88;;;27.43;55.36
21869;BME280;11099;41.564;23.296;2023-06-10T12:04:21;96932.03;;;27.25;56.83
21869;BME280;11099;41.564;23.296;2023-06-10T12:06:52;96935.19;;;27.24;58.03
21869;BME280;11099;41.564;23.296;2023-06-10T12:09:23;96943.81;;;27.22;57.16
21869;BME280;11099;41.564;23.296;2023-06-10T12:20:05;96938.50;;;27.61;58.51
21869;BME280;11099;41.564;23.296;2023-06-10T12:22:41;96929.97;;;27.75;58.54
21869;BME280;11099;41.564;23.296;2023-06-10T12:25:08;96897.03;;;27.49;57.74
21869;BME280;11099;41.564;23.296;2023-06-10T12:27:34;96929.78;;;28.07;58.16
21869;BME280;11099;41.564;23.296;2023-06-10T12:30:05;96930.25;;;28.19;55.62
21869;BME280;11099;41.564;23.296;2023-06-10T12:32:44;96919.84;;;28.14;56.83
21869;BME280;11099;41.564;23.296;2023-06-10T12:35:11;96876.06;;;27.59;55.48
21869;BME280;11099;41.564;23.296;2023-06-10T12:37:39;96799.97;;;27.16;56.50
21869;BME280;11099;41.564;23.296;2023-06-10T12:40:05;96906.22;;;27.84;60.48
21869;BME280;11099;41.564;23.296;2023-06-10T12:42:32;96908.00;;;28.04;57.50
21869;BME280;11099;41.564;23.296;2023-06-10T12:45:00;96911.19;;;28.15;56.37
21869;BME280;11099;41.564;23.296;2023-06-10T12:47:34;96870.91;;;27.03;65.75
21869;BME280;11099;41.564;23.296;2023-06-10T12:50:01;96809.03;;;26.96;63.30
21869;BME280;11099;41.564;23.296;2023-06-10T12:52:27;96891.19;;;27.64;64.40
21869;BME280;11099;41.564;23.296;2023-06-10T12:54:55;96870.28;;;27.28;69.25
21869;BME280;11099;41.564;23.296;2023-06-10T12:57:22;96886.34;;;27.68;71.51
21869;BME280;11099;41.564;23.296;2023-06-10T12:59:48;96885.41;;;27.74;71.64
21869;BME280;11099;41.564;23.296;2023-06-10T13:02:21;96820.31;;;26.98;73.12
21869;BME280;11099;41.564;23.296;2023-06-10T13:04:49;96886.03;;;27.66;73.46
21869;BME280;11099;41.564;23.296;2023-06-10T13:07:15;96862.41;;;27.59;71.83
21869;BME280;11099;41.564;23.296;2023-06-10T13:09:41;96888.72;;;27.95;69.55